sensor_id;sensor_type;location;lat;lon;timestamp;pressure;altitude;pressure_sealevel;temperature;humidity
71559;BME280;59382;43.852;25.952;2023-01-31T00:00:52;100702.53;;;3.01;66.45
71559;BME280;59382;43.852;25.952;2023-01-31T00:03:17;100695.53;;;3.00;66.30
71559;BME280;59382;43.852;25.952;2023-01-31T00:05:43;100693.56;;;3.02;66.49
71559;BME280;59382;43.852;25.952;2023-01-31T00:08:08;100716.91;;;3.08;66.77
71559;BME280;59382;43.852;25.952;2023-01-31T00:10:34;100704.53;;;2.99;66.74
71559;BME280;59382;43.852;25.952;2023-01-31T00:12:59;100697.88;;;3.03;66.18
71559;BME280;59382;43.852;25.952;2023-01-31T00:15:25;100691.22;;;3.07;66.89
71559;BME280;59382;43.852;25.952;2023-01-31T00:17:50;100699.56;;;3.12;66.28
71559;BME280;59382;43.852;25.952;2023-01-31T00:20:16;100703.56;;;3.08;66.16
71559;BME280;59382;43.852;25.952;2023-01-31T00:22:43;100696.88;;;3.04;66.85
71559;BME280;59382;43.852;25.952;2023-01-31T00:25:08;100698.56;;;3.05;66.02
71559;BME280;59382;43.852;25.952;2023-01-31T00:27:34;100692.19;;;2.98;66.54
71559;BME280;59382;43.852;25.952;2023-01-31T00:29:59;100696.88;;;3.04;66.84
71559;BME280;59382;43.852;25.952;2023-01-31T00:32:25;100681.56;;;3.06;66.77
71559;BME280;59382;43.852;25.952;2023-01-31T00:34:54;100690.22;;;3.16;66.22
71559;BME280;59382;43.852;25.952;2023-01-31T00:37:20;100671.91;;;3.05;66.31
71559;BME280;59382;43.852;25.952;2023-01-31T00:39:46;100696.41;;;3.16;65.80
71559;BME280;59382;43.852;25.952;2023-01-31T00:42:12;100696.75;;;3.13;66.31
71559;BME280;59382;43.852;25.952;2023-01-31T00:44:37;100691.53;;;3.04;66.39
71559;BME280;59382;43.852;25.952;2023-01-31T00:47:03;100697.41;;;3.07;66.20
71559;BME280;59382;43.852;25.952;2023-01-31T00:49:29;100710.44;;;3.18;66.35
71559;BME280;59382;43.852;25.952;2023-01-31T00:51:54;100692.75;;;3.17;66.19
71559;BME280;59382;43.852;25.952;2023-01-31T00:54:20;100710.94;;;3.30;66.16
71559;BME280;59382;43.852;25.952;2023-01-31T00:56:45;100695.91;;;3.29;66.36
71559;BME280;59382;43.852;25.952;2023-01-31T00:59:11;100714.28;;;3.40;66.19
71559;BME280;59382;43.852;25.952;2023-01-31T01:01:37;100710.59;;;3.41;65.91
71559;BME280;59382;43.852;25.952;2023-01-31T01:04:03;100704.94;;;3.44;65.82
71559;BME280;59382;43.852;25.952;2023-01-31T01:06:29;100717.09;;;3.38;65.36
71559;BME280;59382;43.852;25.952;2023-01-31T01:08:55;100687.91;;;3.29;65.57
71559;BME280;59382;43.852;25.952;2023-01-31T01:11:30;100681.94;;;3.27;65.26
71559;BME280;59382;43.852;25.952;2023-01-31T01:13:57;100696.44;;;3.32;65.41
71559;BME280;59382;43.852;25.952;2023-01-31T01:16:31;100695.25;;;3.27;66.25
71559;BME280;59382;43.852;25.952;2023-01-31T01:18:57;100674.25;;;3.08;66.16
71559;BME280;59382;43.852;25.952;2023-01-31T01:21:24;100674.91;;;3.10;66.04
71559;BME280;59382;43.852;25.952;2023-01-31T01:23:51;100676.75;;;3.17;66.48
71559;BME280;59382;43.852;25.952;2023-01-31T01:26:23;100659.56;;;3.04;66.15
71559;BME280;59382;43.852;25.952;2023-01-31T01:28:50;100657.56;;;3.06;66.09
71559;BME280;59382;43.852;25.952;2023-01-31T01:31:16;100675.94;;;3.17;66.52
71559;BME280;59382;43.852;25.952;2023-01-31T01:33:43;100678.22;;;3.04;66.16
71559;BME280;59382;43.852;25.952;2023-01-31T01:36:10;100699.91;;;3.17;66.64
71559;BME280;59382;43.852;25.952;2023-01-31T01:38:38;100681.59;;;3.14;66.56
71559;BME280;59382;43.852;25.952;2023-01-31T01:41:05;100692.59;;;3.27;65.77
71559;BME280;59382;43.852;25.952;2023-01-31T01:43:52;100707.59;;;3.36;65.59
71559;BME280;59382;43.852;25.952;2023-01-31T01:46:39;100709.59;;;3.34;65.94
71559;BME280;59382;43.852;25.952;2023-01-31T01:49:22;100710.25;;;3.28;66.35
71559;BME280;59382;43.852;25.952;2023-01-31T01:51:55;100688.72;;;3.05;65.97
71559;BME280;59382;43.852;25.952;2023-01-31T01:54:26;100709.56;;;3.10;66.48
71559;BME280;59382;43.852;25.952;2023-01-31T01:56:58;100669.19;;;2.81;66.43
71559;BME280;59382;43.852;25.952;2023-01-31T01:59:30;100695.22;;;3.03;66.49
71559;BME280;59382;43.852;25.952;2023-01-31T02:01:58;100713.91;;;3.19;66.76
71559;BME280;59382;43.852;25.952;2023-01-31T02:04:27;100714.09;;;3.25;66.48
71559;BME280;59382;43.852;25.952;2023-01-31T02:06:54;100718.28;;;3.36;67.08
71559;BME280;59382;43.852;25.952;2023-01-31T02:09:44;100702.59;;;3.33;66.55
71559;BME280;59382;43.852;25.952;2023-01-31T02:12:11;100717.63;;;3.42;66.12
71559;BME280;59382;43.852;25.952;2023-01-31T02:14:37;100722.09;;;3.41;66.41
71559;BME280;59382;43.852;25.952;2023-01-31T02:17:02;100736.97;;;3.52;66.50
71559;BME280;59382;43.852;25.952;2023-01-31T02:23:29;100739.97;;;3.49;66.62
71559;BME280;59382;43.852;25.952;2023-01-31T02:25:30;100743.31;;;3.51;67.27
71559;BME280;59382;43.852;25.952;2023-01-31T02:36:46;100760.31;;;3.58;66.36
71559;BME280;59382;43.852;25.952;2023-01-31T02:42:14;100761.97;;;3.75;66.66
71559;BME280;59382;43.852;25.952;2023-01-31T02:45:20;100762.66;;;3.85;66.34
71559;BME280;59382;43.852;25.952;2023-01-31T02:53:11;100753.97;;;3.99;66.36
71559;BME280;59382;43.852;25.952;2023-01-31T02:55:51;100761.16;;;3.98;65.86
71559;BME280;59382;43.852;25.952;2023-01-31T02:58:38;100743.31;;;3.91;66.44
71559;BME280;59382;43.852;25.952;2023-01-31T03:01:11;100753.81;;;3.92;66.29
71559;BME280;59382;43.852;25.952;2023-01-31T03:03:38;100764.84;;;3.89;66.27
71559;BME280;59382;43.852;25.952;2023-01-31T03:08:52;100740.97;;;3.72;66.82
71559;BME280;59382;43.852;25.952;2023-01-31T03:11:24;100762.31;;;3.80;66.72
71559;BME280;59382;43.852;25.952;2023-01-31T03:14:18;100754.50;;;3.70;66.63
71559;BME280;59382;43.852;25.952;2023-01-31T03:16:55;100754.97;;;3.58;67.12
71559;BME280;59382;43.852;25.952;2023-01-31T03:22:24;100777.63;;;3.46;67.32
71559;BME280;59382;43.852;25.952;2023-01-31T03:24:52;100753.94;;;3.35;66.97
71559;BME280;59382;43.852;25.952;2023-01-31T03:27:18;100759.44;;;3.41;67.46
71559;BME280;59382;43.852;25.952;2023-01-31T03:29:45;100749.63;;;3.42;67.08
71559;BME280;59382;43.852;25.952;2023-01-31T03:32:19;100765.97;;;3.55;67.32
71559;BME280;59382;43.852;25.952;2023-01-31T03:34:47;100762.28;;;3.56;67.18
71559;BME280;59382;43.852;25.952;2023-01-31T03:37:30;100772.63;;;3.59;66.81
71559;BME280;59382;43.852;25.952;2023-01-31T03:40:15;100776.66;;;3.63;66.73
71559;BME280;59382;43.852;25.952;2023-01-31T03:42:50;100778.16;;;3.65;67.04
71559;BME280;59382;43.852;25.952;2023-01-31T03:47:58;100794.34;;;3.64;67.09
71559;BME280;59382;43.852;25.952;2023-01-31T03:50:25;100791.66;;;3.64;67.28
71559;BME280;59382;43.852;25.952;2023-01-31T03:53:08;100781.97;;;3.55;66.58
71559;BME280;59382;43.852;25.952;2023-01-31T03:55:50;100777.66;;;3.54;67.46
71559;BME280;59382;43.852;25.952;2023-01-31T03:58:19;100777.81;;;3.52;66.89
71559;BME280;59382;43.852;25.952;2023-01-31T04:00:47;100795.34;;;3.63;66.97
71559;BME280;59382;43.852;25.952;2023-01-31T04:03:31;100796.19;;;3.71;67.32
71559;BME280;59382;43.852;25.952;2023-01-31T04:06:00;100791.00;;;3.78;67.28
71559;BME280;59382;43.852;25.952;2023-01-31T04:08:26;100810.34;;;3.96;66.89
71559;BME280;59382;43.852;25.952;2023-01-31T04:10:53;100813.38;;;4.01;66.33
71559;BME280;59382;43.852;25.952;2023-01-31T04:13:19;100809.03;;;3.92;66.27
71559;BME280;59382;43.852;25.952;2023-01-31T04:15:46;100814.03;;;3.87;66.59
71559;BME280;59382;43.852;25.952;2023-01-31T04:18:11;100814.53;;;3.82;66.28
71559;BME280;59382;43.852;25.952;2023-01-31T04:20:37;100805.19;;;3.78;66.78
71559;BME280;59382;43.852;25.952;2023-01-31T04:23:03;100796.69;;;3.67;66.73
71559;BME280;59382;43.852;25.952;2023-01-31T04:25:28;100808.34;;;3.74;66.95
71559;BME280;59382;43.852;25.952;2023-01-31T04:27:53;100802.84;;;3.67;66.89
71559;BME280;59382;43.852;25.952;2023-01-31T04:30:19;100800.34;;;3.66;67.24
71559;BME280;59382;43.852;25.952;2023-01-31T04:32:44;100808.03;;;3.77;67.03
71559;BME280;59382;43.852;25.952;2023-01-31T04:35:10;100804.84;;;3.81;67.01
71559;BME280;59382;43.852;25.952;2023-01-31T04:37:35;100824.06;;;3.85;66.53
71559;BME280;59382;43.852;25.952;2023-01-31T04:40:01;100802.34;;;3.80;66.65
71559;BME280;59382;43.852;25.952;2023-01-31T04:42:26;100806.69;;;3.81;66.52
71559;BME280;59382;43.852;25.952;2023-01-31T04:44:52;100819.72;;;3.92;66.17
71559;BME280;59382;43.852;25.952;2023-01-31T04:47:17;100835.75;;;4.00;66.68
71559;BME280;59382;43.852;25.952;2023-01-31T04:49:43;100841.09;;;4.00;66.18
71559;BME280;59382;43.852;25.952;2023-01-31T04:52:09;100833.72;;;4.02;66.34
71559;BME280;59382;43.852;25.952;2023-01-31T04:54:35;100850.09;;;4.15;66.19
71559;BME280;59382;43.852;25.952;2023-01-31T04:57:01;100827.38;;;4.11;66.57
71559;BME280;59382;43.852;25.952;2023-01-31T04:59:27;100848.56;;;4.29;65.81
71559;BME280;59382;43.852;25.952;2023-01-31T05:01:53;100830.72;;;4.29;65.67
71559;BME280;59382;43.852;25.952;2023-01-31T05:04:18;100835.22;;;4.37;65.78
71559;BME280;59382;43.852;25.952;2023-01-31T05:06:46;100838.75;;;4.37;65.78
71559;BME280;59382;43.852;25.952;2023-01-31T05:09:12;100841.72;;;4.42;65.33
71559;BME280;59382;43.852;25.952;2023-01-31T05:11:37;100841.38;;;4.45;65.78
71559;BME280;59382;43.852;25.952;2023-01-31T05:14:03;100830.69;;;4.45;65.41
71559;BME280;59382;43.852;25.952;2023-01-31T05:16:28;100827.19;;;4.53;65.92
71559;BME280;59382;43.852;25.952;2023-01-31T05:18:54;100812.31;;;4.50;65.18
71559;BME280;59382;43.852;25.952;2023-01-31T05:21:19;100820.81;;;4.62;65.12
71559;BME280;59382;43.852;25.952;2023-01-31T05:23:45;100817.63;;;4.66;64.88
71559;BME280;59382;43.852;25.952;2023-01-31T05:26:10;100794.44;;;4.59;64.85
71559;BME280;59382;43.852;25.952;2023-01-31T05:28:36;100803.97;;;4.61;65.41
71559;BME280;59382;43.852;25.952;2023-01-31T05:31:04;100798.28;;;4.64;64.82
71559;BME280;59382;43.852;25.952;2023-01-31T05:33:30;100824.63;;;4.75;65.01
71559;BME280;59382;43.852;25.952;2023-01-31T05:35:56;100809.28;;;4.69;64.89
71559;BME280;59382;43.852;25.952;2023-01-31T05:38:22;100823.94;;;4.73;64.71
71559;BME280;59382;43.852;25.952;2023-01-31T05:40:49;100834.97;;;4.70;65.03
71559;BME280;59382;43.852;25.952;2023-01-31T05:43:14;100834.69;;;4.65;64.58
71559;BME280;59382;43.852;25.952;2023-01-31T05:45:40;100818.00;;;4.55;64.28
71559;BME280;59382;43.852;25.952;2023-01-31T05:48:07;100852.72;;;4.71;64.57
71559;BME280;59382;43.852;25.952;2023-01-31T05:50:34;100844.22;;;4.60;65.08
71559;BME280;59382;43.852;25.952;2023-01-31T05:53:00;100857.59;;;4.60;64.66
71559;BME280;59382;43.852;25.952;2023-01-31T05:55:28;100864.78;;;4.35;64.44
71559;BME280;59382;43.852;25.952;2023-01-31T05:57:54;100875.78;;;4.24;65.56
71559;BME280;59382;43.852;25.952;2023-01-31T06:00:20;100881.13;;;4.24;65.05
71559;BME280;59382;43.852;25.952;2023-01-31T06:02:46;100876.47;;;4.18;65.39
71559;BME280;59382;43.852;25.952;2023-01-31T06:05:12;100886.47;;;4.16;65.35
71559;BME280;59382;43.852;25.952;2023-01-31T06:07:38;100874.94;;;3.91;65.33
71559;BME280;59382;43.852;25.952;2023-01-31T06:10:05;100888.44;;;3.82;65.36
71559;BME280;59382;43.852;25.952;2023-01-31T06:12:31;100896.75;;;3.63;65.91
71559;BME280;59382;43.852;25.952;2023-01-31T06:14:57;100891.31;;;3.47;66.08
71559;BME280;59382;43.852;25.952;2023-01-31T06:17:22;100893.50;;;3.51;66.08
71559;BME280;59382;43.852;25.952;2023-01-31T06:19:48;100882.66;;;3.45;66.65
71559;BME280;59382;43.852;25.952;2023-01-31T06:22:14;100876.16;;;3.47;66.65
71559;BME280;59382;43.852;25.952;2023-01-31T06:24:39;100887.38;;;3.59;65.99
71559;BME280;59382;43.852;25.952;2023-01-31T06:27:05;100894.56;;;3.66;66.57
71559;BME280;59382;43.852;25.952;2023-01-31T06:29:30;100875.56;;;3.61;66.43
71559;BME280;59382;43.852;25.952;2023-01-31T06:31:56;100885.75;;;3.66;65.60
71559;BME280;59382;43.852;25.952;2023-01-31T06:34:21;100863.84;;;3.46;66.19
71559;BME280;59382;43.852;25.952;2023-01-31T06:36:47;100872.00;;;3.45;66.33
71559;BME280;59382;43.852;25.952;2023-01-31T06:39:13;100888.00;;;3.53;66.93
71559;BME280;59382;43.852;25.952;2023-01-31T06:41:39;100887.03;;;3.54;66.48
71559;BME280;59382;43.852;25.952;2023-01-31T06:44:04;100903.41;;;3.67;66.56
71559;BME280;59382;43.852;25.952;2023-01-31T06:46:30;100892.06;;;3.65;66.62
71559;BME280;59382;43.852;25.952;2023-01-31T06:48:56;100895.75;;;3.80;66.54
71559;BME280;59382;43.852;25.952;2023-01-31T06:51:21;100900.63;;;3.84;65.81
71559;BME280;59382;43.852;25.952;2023-01-31T06:53:47;100914.16;;;3.99;65.63
71559;BME280;59382;43.852;25.952;2023-01-31T06:56:13;100912.34;;;4.07;65.75
71559;BME280;59382;43.852;25.952;2023-01-31T06:58:39;100913.34;;;4.23;66.09
71559;BME280;59382;43.852;25.952;2023-01-31T07:01:11;100912.34;;;4.32;65.53
71559;BME280;59382;43.852;25.952;2023-01-31T07:03:37;100896.81;;;4.27;65.66
71559;BME280;59382;43.852;25.952;2023-01-31T07:06:04;100907.53;;;4.43;65.62
71559;BME280;59382;43.852;25.952;2023-01-31T07:08:30;100908.19;;;4.37;66.04
71559;BME280;59382;43.852;25.952;2023-01-31T07:10:56;100933.75;;;4.48;65.49
71559;BME280;59382;43.852;25.952;2023-01-31T07:13:22;100936.25;;;4.49;65.18
71559;BME280;59382;43.852;25.952;2023-01-31T07:15:48;100925.22;;;4.44;65.29
71559;BME280;59382;43.852;25.952;2023-01-31T07:18:14;100915.22;;;4.46;64.69
71559;BME280;59382;43.852;25.952;2023-01-31T07:20:40;100914.19;;;4.39;64.83
71559;BME280;59382;43.852;25.952;2023-01-31T07:23:05;100945.63;;;4.61;65.24
71559;BME280;59382;43.852;25.952;2023-01-31T07:25:31;100927.56;;;4.55;65.36
71559;BME280;59382;43.852;25.952;2023-01-31T07:27:59;100945.75;;;4.68;65.02
71559;BME280;59382;43.852;25.952;2023-01-31T07:30:25;100952.94;;;4.75;65.06
71559;BME280;59382;43.852;25.952;2023-01-31T07:32:51;100933.91;;;4.62;64.60
71559;BME280;59382;43.852;25.952;2023-01-31T07:35:17;100929.22;;;4.56;65.04
71559;BME280;59382;43.852;25.952;2023-01-31T07:37:42;100956.28;;;4.69;64.42
71559;BME280;59382;43.852;25.952;2023-01-31T07:40:10;100956.28;;;4.69;64.75
71559;BME280;59382;43.852;25.952;2023-01-31T07:42:38;100943.75;;;4.62;64.91
71559;BME280;59382;43.852;25.952;2023-01-31T07:45:04;100959.63;;;4.71;65.12
71559;BME280;59382;43.852;25.952;2023-01-31T07:47:30;100959.97;;;4.68;65.32
71559;BME280;59382;43.852;25.952;2023-01-31T07:49:56;100959.63;;;4.63;64.62
71559;BME280;59382;43.852;25.952;2023-01-31T07:52:21;100958.66;;;4.64;64.70
71559;BME280;59382;43.852;25.952;2023-01-31T07:54:48;100944.94;;;4.59;65.06
71559;BME280;59382;43.852;25.952;2023-01-31T07:57:13;100963.28;;;4.70;64.39
71559;BME280;59382;43.852;25.952;2023-01-31T07:59:42;100974.31;;;4.67;64.75
71559;BME280;59382;43.852;25.952;2023-01-31T08:02:13;100957.63;;;4.57;64.69
71559;BME280;59382;43.852;25.952;2023-01-31T08:04:58;100970.66;;;4.52;64.67
71559;BME280;59382;43.852;25.952;2023-01-31T08:07:24;100980.31;;;4.45;64.77
71559;BME280;59382;43.852;25.952;2023-01-31T08:09:50;100986.31;;;4.39;64.62
71559;BME280;59382;43.852;25.952;2023-01-31T08:12:16;100984.31;;;4.33;64.47
71559;BME280;59382;43.852;25.952;2023-01-31T08:14:42;100982.28;;;4.27;64.76
71559;BME280;59382;43.852;25.952;2023-01-31T08:17:08;100982.78;;;4.23;65.08
71559;BME280;59382;43.852;25.952;2023-01-31T08:19:34;100974.78;;;4.15;65.06
71559;BME280;59382;43.852;25.952;2023-01-31T08:22:02;100971.91;;;4.08;65.23
71559;BME280;59382;43.852;25.952;2023-01-31T08:24:29;100976.13;;;4.11;65.53
71559;BME280;59382;43.852;25.952;2023-01-31T08:26:56;100974.94;;;4.13;65.64
71559;BME280;59382;43.852;25.952;2023-01-31T08:29:22;100970.63;;;4.12;65.55
71559;BME280;59382;43.852;25.952;2023-01-31T08:31:49;100984.66;;;4.22;65.46
71559;BME280;59382;43.852;25.952;2023-01-31T08:34:14;100978.94;;;4.17;65.16
71559;BME280;59382;43.852;25.952;2023-01-31T08:36:40;100973.28;;;4.12;65.25
71559;BME280;59382;43.852;25.952;2023-01-31T08:39:07;100971.25;;;4.14;65.54
71559;BME280;59382;43.852;25.952;2023-01-31T08:41:34;100963.56;;;4.03;65.68
71559;BME280;59382;43.852;25.952;2023-01-31T08:44:00;100979.97;;;4.16;65.49
71559;BME280;59382;43.852;25.952;2023-01-31T08:46:30;100982.47;;;4.18;65.45
71559;BME280;59382;43.852;25.952;2023-01-31T08:48:55;100974.09;;;4.13;65.79
71559;BME280;59382;43.852;25.952;2023-01-31T08:51:21;100964.91;;;4.07;65.74
71559;BME280;59382;43.852;25.952;2023-01-31T08:53:48;100977.94;;;4.10;65.38
71559;BME280;59382;43.852;25.952;2023-01-31T08:56:14;100980.25;;;3.97;65.91
71559;BME280;59382;43.852;25.952;2023-01-31T08:58:42;100996.28;;;4.05;66.23
71559;BME280;59382;43.852;25.952;2023-01-31T09:01:14;100995.94;;;4.00;66.16
71559;BME280;59382;43.852;25.952;2023-01-31T09:03:40;100985.75;;;3.95;66.25
71559;BME280;59382;43.852;25.952;2023-01-31T09:06:09;100995.28;;;4.06;65.61
71559;BME280;59382;43.852;25.952;2023-01-31T09:08:36;100999.13;;;4.12;66.11
71559;BME280;59382;43.852;25.952;2023-01-31T09:11:03;100999.81;;;4.22;65.84
71559;BME280;59382;43.852;25.952;2023-01-31T09:13:29;101005.50;;;4.19;65.23
71559;BME280;59382;43.852;25.952;2023-01-31T09:16:05;101015.84;;;4.22;65.83
71559;BME280;59382;43.852;25.952;2023-01-31T09:18:35;101011.66;;;4.11;65.36
71559;BME280;59382;43.852;25.952;2023-01-31T09:23:30;101019.16;;;4.07;65.62
71559;BME280;59382;43.852;25.952;2023-01-31T09:25:56;101021.34;;;4.12;65.84
71559;BME280;59382;43.852;25.952;2023-01-31T09:28:22;101020.19;;;4.15;65.79
71559;BME280;59382;43.852;25.952;2023-01-31T09:30:49;101010.34;;;4.15;65.93
71559;BME280;59382;43.852;25.952;2023-01-31T09:33:15;101016.69;;;4.22;65.86
71559;BME280;59382;43.852;25.952;2023-01-31T09:35:41;101008.19;;;4.35;65.49
71559;BME280;59382;43.852;25.952;2023-01-31T09:38:07;101013.41;;;4.44;65.58
71559;BME280;59382;43.852;25.952;2023-01-31T09:40:34;101014.75;;;4.56;65.43
71559;BME280;59382;43.852;25.952;2023-01-31T09:43:03;100983.00;;;4.53;65.13
71559;BME280;59382;43.852;25.952;2023-01-31T09:45:34;101022.47;;;4.83;65.44
71559;BME280;59382;43.852;25.952;2023-01-31T09:48:01;101012.75;;;4.90;64.64
71559;BME280;59382;43.852;25.952;2023-01-31T09:50:42;101007.06;;;4.93;64.72
71559;BME280;59382;43.852;25.952;2023-01-31T09:53:15;101025.13;;;5.07;64.85
71559;BME280;59382;43.852;25.952;2023-01-31T10:04:15;101017.28;;;5.06;64.80
71559;BME280;59382;43.852;25.952;2023-01-31T10:06:54;101008.09;;;4.92;65.01
71559;BME280;59382;43.852;25.952;2023-01-31T10:10:10;101012.75;;;4.90;65.01
71559;BME280;59382;43.852;25.952;2023-01-31T10:12:39;101011.25;;;4.96;64.81
71559;BME280;59382;43.852;25.952;2023-01-31T10:17:57;100975.31;;;4.98;64.84
71559;BME280;59382;43.852;25.952;2023-01-31T10:20:45;100965.59;;;4.97;64.40
71559;BME280;59382;43.852;25.952;2023-01-31T10:25:54;100978.59;;;5.16;64.89
71559;BME280;59382;43.852;25.952;2023-01-31T10:30:56;100957.88;;;5.26;64.50
71559;BME280;59382;43.852;25.952;2023-01-31T10:36:24;100973.19;;;5.40;63.95
71559;BME280;59382;43.852;25.952;2023-01-31T10:39:31;100981.09;;;5.34;63.73
71559;BME280;59382;43.852;25.952;2023-01-31T10:44:31;100964.47;;;5.54;63.79
71559;BME280;59382;43.852;25.952;2023-01-31T10:46:59;100951.03;;;5.62;63.96
71559;BME280;59382;43.852;25.952;2023-01-31T10:49:25;100971.41;;;5.79;63.48
71559;BME280;59382;43.852;25.952;2023-01-31T10:52:06;100972.72;;;5.91;63.19
71559;BME280;59382;43.852;25.952;2023-01-31T10:54:48;100981.53;;;6.00;63.15
71559;BME280;59382;43.852;25.952;2023-01-31T10:57:17;100972.63;;;6.07;63.13
71559;BME280;59382;43.852;25.952;2023-01-31T10:59:45;100974.34;;;6.00;63.19
71559;BME280;59382;43.852;25.952;2023-01-31T11:04:43;100953.94;;;5.99;63.44
71559;BME280;59382;43.852;25.952;2023-01-31T11:07:10;100963.69;;;6.15;62.61
71559;BME280;59382;43.852;25.952;2023-01-31T11:09:39;100958.59;;;6.06;62.30
71559;BME280;59382;43.852;25.952;2023-01-31T11:12:06;100950.31;;;5.84;63.06
71559;BME280;59382;43.852;25.952;2023-01-31T11:14:32;100947.63;;;5.76;63.33
71559;BME280;59382;43.852;25.952;2023-01-31T11:17:03;100964.34;;;5.86;63.35
71559;BME280;59382;43.852;25.952;2023-01-31T11:21:58;100970.03;;;5.91;63.56
71559;BME280;59382;43.852;25.952;2023-01-31T11:24:28;100928.41;;;5.73;63.10
71559;BME280;59382;43.852;25.952;2023-01-31T11:27:01;100955.44;;;5.94;62.47
71559;BME280;59382;43.852;25.952;2023-01-31T11:29:30;100958.28;;;5.92;62.64
71559;BME280;59382;43.852;25.952;2023-01-31T11:31:58;100966.69;;;5.89;62.92
71559;BME280;59382;43.852;25.952;2023-01-31T11:34:26;100950.53;;;5.67;62.37
71559;BME280;59382;43.852;25.952;2023-01-31T11:37:02;100951.69;;;5.72;63.00
71559;BME280;59382;43.852;25.952;2023-01-31T11:41:54;100939.09;;;5.81;62.73
71559;BME280;59382;43.852;25.952;2023-01-31T11:44:21;100942.22;;;5.92;62.66
71559;BME280;59382;43.852;25.952;2023-01-31T11:47:05;100962.38;;;6.11;62.46
71559;BME280;59382;43.852;25.952;2023-01-31T11:49:38;100965.50;;;6.23;62.57
71559;BME280;59382;43.852;25.952;2023-01-31T11:52:17;100947.09;;;6.20;61.93
71559;BME280;59382;43.852;25.952;2023-01-31T11:54:50;100953.53;;;6.33;62.04
71559;BME280;59382;43.852;25.952;2023-01-31T11:57:24;100941.34;;;6.31;61.83
71559;BME280;59382;43.852;25.952;2023-01-31T11:59:53;100924.16;;;6.17;61.79
71559;BME280;59382;43.852;25.952;2023-01-31T12:02:33;100946.69;;;6.31;61.95
71559;BME280;59382;43.852;25.952;2023-01-31T12:05:00;100961.72;;;6.40;62.05
71559;BME280;59382;43.852;25.952;2023-01-31T12:07:50;100945.66;;;6.32;61.74
71559;BME280;59382;43.852;25.952;2023-01-31T12:10:40;100967.06;;;6.40;61.78
71559;BME280;59382;43.852;25.952;2023-01-31T12:13:15;100971.44;;;6.33;62.22
71559;BME280;59382;43.852;25.952;2023-01-31T12:16:08;100968.66;;;6.26;62.19
71559;BME280;59382;43.852;25.952;2023-01-31T12:21:14;100973.84;;;6.28;62.94
71559;BME280;59382;43.852;25.952;2023-01-31T12:26:37;100975.84;;;6.26;62.67
71559;BME280;59382;43.852;25.952;2023-01-31T12:29:29;100979.72;;;6.23;62.29
71559;BME280;59382;43.852;25.952;2023-01-31T12:32:41;100983.22;;;6.24;62.33
71559;BME280;59382;43.852;25.952;2023-01-31T12:40:51;100991.25;;;6.24;62.04
71559;BME280;59382;43.852;25.952;2023-01-31T13:05:26;101000.06;;;6.10;61.96
71559;BME280;59382;43.852;25.952;2023-01-31T13:08:06;101002.75;;;6.10;62.25
71559;BME280;59382;43.852;25.952;2023-01-31T13:10:48;101004.38;;;6.19;61.71
71559;BME280;59382;43.852;25.952;2023-01-31T13:13:36;101006.00;;;6.28;61.44
71559;BME280;59382;43.852;25.952;2023-01-31T13:16:17;100996.00;;;6.22;61.11
71559;BME280;59382;43.852;25.952;2023-01-31T13:18:50;100998.00;;;6.20;61.37
71559;BME280;59382;43.852;25.952;2023-01-31T13:21:22;100995.34;;;6.12;61.23
71559;BME280;59382;43.852;25.952;2023-01-31T13:23:56;100975.72;;;5.96;61.89
71559;BME280;59382;43.852;25.952;2023-01-31T13:26:27;100993.41;;;6.06;61.71
71559;BME280;59382;43.852;25.952;2023-01-31T13:29:11;100985.06;;;6.00;61.76
71559;BME280;59382;43.852;25.952;2023-01-31T13:31:46;101006.56;;;6.15;61.62
71559;BME280;59382;43.852;25.952;2023-01-31T13:34:17;101006.22;;;6.18;61.54
71559;BME280;59382;43.852;25.952;2023-01-31T13:36:59;101013.38;;;6.26;60.99
71559;BME280;59382;43.852;25.952;2023-01-31T13:41:54;101006.59;;;6.38;60.67
71559;BME280;59382;43.852;25.952;2023-01-31T13:44:19;101023.59;;;6.53;60.44
71559;BME280;59382;43.852;25.952;2023-01-31T13:47:12;101021.63;;;6.47;60.34
71559;BME280;59382;43.852;25.952;2023-01-31T13:49:47;101014.59;;;6.46;60.49
71559;BME280;59382;43.852;25.952;2023-01-31T13:52:31;101017.09;;;6.47;60.99
71559;BME280;59382;43.852;25.952;2023-01-31T13:55:14;100995.53;;;6.41;60.46
71559;BME280;59382;43.852;25.952;2023-01-31T13:57:44;100997.69;;;6.45;60.84
71559;BME280;59382;43.852;25.952;2023-01-31T14:00:37;101016.56;;;6.52;60.47
71559;BME280;59382;43.852;25.952;2023-01-31T14:03:06;101019.97;;;6.46;60.83
71559;BME280;59382;43.852;25.952;2023-01-31T14:08:38;101034.72;;;6.42;60.35
71559;BME280;59382;43.852;25.952;2023-01-31T14:14:19;101045.88;;;6.23;61.03
71559;BME280;59382;43.852;25.952;2023-01-31T14:16:48;101044.91;;;6.16;61.20
71559;BME280;59382;43.852;25.952;2023-01-31T14:21:53;101061.00;;;6.16;61.51
71559;BME280;59382;43.852;25.952;2023-01-31T14:32:57;101061.25;;;5.90;61.80
71559;BME280;59382;43.852;25.952;2023-01-31T14:35:29;101070.78;;;5.92;60.95
71559;BME280;59382;43.852;25.952;2023-01-31T14:44:20;101079.53;;;5.70;61.42
71559;BME280;59382;43.852;25.952;2023-01-31T14:57:38;101069.50;;;5.72;61.65
71559;BME280;59382;43.852;25.952;2023-01-31T15:03:05;101071.19;;;5.81;61.21
71559;BME280;59382;43.852;25.952;2023-01-31T15:11:05;101087.72;;;5.77;60.95
71559;BME280;59382;43.852;25.952;2023-01-31T15:13:35;101085.56;;;5.72;61.32
71559;BME280;59382;43.852;25.952;2023-01-31T15:16:05;101080.38;;;5.63;61.72
71559;BME280;59382;43.852;25.952;2023-01-31T15:18:32;101075.88;;;5.55;61.18
71559;BME280;59382;43.852;25.952;2023-01-31T15:21:01;101070.88;;;5.52;61.59
71559;BME280;59382;43.852;25.952;2023-01-31T15:23:31;101074.56;;;5.59;62.04